createdAt,value
2022-10-09T00:00:06.578Z,6.50
2022-10-09T00:02:38.864Z,6.57
2022-10-09T00:05:06.031Z,5.90
2022-10-09T00:07:32.530Z,5.90
2022-10-09T00:09:58.984Z,5.70
2022-10-09T00:12:25.485Z,5.60
2022-10-09T00:14:51.930Z,6.20
2022-10-09T00:17:18.376Z,6.55
2022-10-09T00:19:44.826Z,5.22
2022-10-09T00:22:11.326Z,6.22
2022-10-09T00:24:37.793Z,6.47
2022-10-09T00:27:04.283Z,6.32
2022-10-09T00:29:30.964Z,5.85
2022-10-09T00:31:57.410Z,6.75
2022-10-09T00:34:23.869Z,5.70
2022-10-09T00:36:50.398Z,6.40
2022-10-09T00:39:16.833Z,5.88
2022-10-09T00:41:43.294Z,5.95
2022-10-09T00:44:47.350Z,6.40
2022-10-09T00:47:19.274Z,6.88
2022-10-09T00:49:46.215Z,7.35
2022-10-09T00:52:12.712Z,5.35
2022-10-09T00:54:40.917Z,5.50
2022-10-09T00:57:07.969Z,5.82
2022-10-09T00:59:35.138Z,6.25
2022-10-09T01:02:01.878Z,4.95
2022-10-09T01:04:28.438Z,6.90
2022-10-09T01:07:17.388Z,5.88
2022-10-09T01:10:01.926Z,6.40
2022-10-09T01:13:08.625Z,5.93
2022-10-09T01:15:42.568Z,5.60
2022-10-09T01:18:19.857Z,5.72
2022-10-09T01:21:00.448Z,5.78
2022-10-09T01:24:05.177Z,5.80
2022-10-09T01:27:10.656Z,5.78
2022-10-09T01:29:49.050Z,4.97
2022-10-09T01:32:18.765Z,5.68
2022-10-09T01:34:46.061Z,5.68
2022-10-09T01:37:14.173Z,5.85
2022-10-09T01:39:41.530Z,4.85
2022-10-09T01:42:08.601Z,4.50
2022-10-09T01:44:35.059Z,4.78
2022-10-09T01:47:02.109Z,4.85
2022-10-09T01:49:42.418Z,3.95
2022-10-09T01:52:40.981Z,4.53
2022-10-09T01:55:24.142Z,5.32
2022-10-09T01:57:55.529Z,4.60
2022-10-09T02:00:22.221Z,5.70
2022-10-09T02:02:49.694Z,5.57
2022-10-09T02:05:22.704Z,5.60
2022-10-09T02:07:49.412Z,5.15
2022-10-09T02:10:17.624Z,5.47
2022-10-09T02:12:48.082Z,5.95
2022-10-09T02:15:14.921Z,5.38
2022-10-09T02:17:44.425Z,5.53
2022-10-09T02:20:20.512Z,5.85
2022-10-09T02:22:47.737Z,5.13
2022-10-09T02:25:14.816Z,4.43
2022-10-09T02:27:41.689Z,4.93
2022-10-09T02:30:09.255Z,6.10
2022-10-09T02:32:35.696Z,5.43
2022-10-09T02:35:02.152Z,5.00
2022-10-09T02:37:28.641Z,5.50
2022-10-09T02:39:55.093Z,4.70
2022-10-09T02:42:22.092Z,4.82
2022-10-09T02:44:48.539Z,4.47
2022-10-09T02:47:14.986Z,4.85
2022-10-09T02:49:41.484Z,5.43
2022-10-09T02:52:07.958Z,5.00
2022-10-09T02:54:34.478Z,4.93
2022-10-09T02:57:00.966Z,4.88
2022-10-09T02:59:27.444Z,4.63
2022-10-09T03:01:54.506Z,4.38
2022-10-09T03:04:21.010Z,4.40
2022-10-09T03:06:47.461Z,4.32
2022-10-09T03:09:13.945Z,4.85
2022-10-09T03:11:40.413Z,4.85
2022-10-09T03:14:06.844Z,5.28
2022-10-09T03:16:33.354Z,6.13
2022-10-09T03:19:00.050Z,5.22
2022-10-09T03:21:27.660Z,5.55
2022-10-09T03:23:54.720Z,5.75
2022-10-09T03:26:23.757Z,5.53
2022-10-09T03:28:51.734Z,6.15
2022-10-09T03:31:46.595Z,5.63
2022-10-09T03:34:06.912Z,6.38
2022-10-09T03:36:33.346Z,5.95
2022-10-09T03:38:59.832Z,5.88
2022-10-09T03:41:26.286Z,7.10
2022-10-09T03:43:52.721Z,6.38
2022-10-09T03:46:19.227Z,6.13
2022-10-09T03:48:45.774Z,6.50
2022-10-09T03:51:12.290Z,6.10
2022-10-09T03:53:38.762Z,6.00
2022-10-09T03:56:05.375Z,6.03
2022-10-09T03:58:31.862Z,5.93
2022-10-09T04:00:58.364Z,7.07
2022-10-09T04:03:27.088Z,6.30
2022-10-09T04:05:53.519Z,6.53
2022-10-09T04:08:19.973Z,7.03
2022-10-09T04:10:46.460Z,5.57
2022-10-09T04:13:12.890Z,6.30
2022-10-09T04:15:39.422Z,5.18
2022-10-09T04:18:05.984Z,5.10
2022-10-09T04:20:32.519Z,6.05
2022-10-09T04:22:59.032Z,6.15
2022-10-09T04:25:25.514Z,6.53
2022-10-09T04:27:51.960Z,6.13
2022-10-09T04:30:18.398Z,6.25
2022-10-09T04:32:44.891Z,6.03
2022-10-09T04:35:11.343Z,5.30
2022-10-09T04:37:37.861Z,4.22
2022-10-09T04:40:04.828Z,5.57
2022-10-09T04:42:31.286Z,5.55
2022-10-09T04:44:57.799Z,4.97
2022-10-09T04:47:24.410Z,5.30
2022-10-09T04:49:50.851Z,5.00
2022-10-09T04:52:17.291Z,5.00
2022-10-09T04:54:43.744Z,5.50
2022-10-09T04:57:10.273Z,5.63
2022-10-09T04:59:36.781Z,6.35
2022-10-09T05:02:03.637Z,5.85
2022-10-09T05:04:30.223Z,5.38
2022-10-09T05:06:56.698Z,6.50
2022-10-09T05:09:23.128Z,6.35
2022-10-09T05:11:49.637Z,5.53
2022-10-09T05:14:16.182Z,6.20
2022-10-09T05:17:08.538Z,5.40
2022-10-09T05:19:29.191Z,5.82
2022-10-09T05:21:55.639Z,6.00
2022-10-09T05:24:22.183Z,7.07
2022-10-09T05:26:48.624Z,6.70
2022-10-09T05:29:15.057Z,6.50
2022-10-09T05:31:46.954Z,6.78
2022-10-09T05:34:15.743Z,7.13
2022-10-09T05:36:42.222Z,6.43
2022-10-09T05:39:08.749Z,6.50
2022-10-09T05:41:35.200Z,7.40
2022-10-09T05:44:02.364Z,7.32
2022-10-09T05:46:30.211Z,6.65
2022-10-09T05:48:58.591Z,7.00
2022-10-09T05:51:30.387Z,6.90
2022-10-09T05:53:57.112Z,6.30
2022-10-09T05:56:25.419Z,6.75
2022-10-09T05:58:55.824Z,7.57
2022-10-09T06:01:24.059Z,8.05
2022-10-09T06:03:52.357Z,6.85
2022-10-09T06:06:19.729Z,7.10
2022-10-09T06:08:46.504Z,8.93
2022-10-09T06:11:15.682Z,7.65
2022-10-09T06:13:42.601Z,7.65
2022-10-09T06:16:11.587Z,8.88
2022-10-09T06:18:38.909Z,8.45
2022-10-09T06:21:05.662Z,8.25
2022-10-09T06:23:32.231Z,8.95
2022-10-09T06:26:01.037Z,8.45
2022-10-09T06:28:31.156Z,8.32
2022-10-09T06:31:05.087Z,8.45
2022-10-09T06:33:32.925Z,8.48
2022-10-09T06:36:10.019Z,7.97
2022-10-09T06:38:37.931Z,7.88
2022-10-09T06:41:06.433Z,7.95
2022-10-09T06:43:33.073Z,6.07
2022-10-09T06:46:08.826Z,7.18
2022-10-09T06:48:36.792Z,6.45
2022-10-09T06:51:06.930Z,7.20
2022-10-09T06:53:41.447Z,6.45
2022-10-09T06:56:08.677Z,8.55
2022-10-09T06:58:35.304Z,6.90
2022-10-09T07:01:06.581Z,7.53
2022-10-09T07:03:33.607Z,9.65
2022-10-09T07:06:16.554Z,7.47
2022-10-09T07:08:45.208Z,8.13
2022-10-09T07:11:14.222Z,9.70
2022-10-09T07:13:41.775Z,9.73
2022-10-09T07:16:09.300Z,11.43
2022-10-09T07:18:36.919Z,8.93
2022-10-09T07:21:08.213Z,11.85
2022-10-09T07:23:35.994Z,9.70
2022-10-09T07:26:09.711Z,11.23
2022-10-09T07:31:04.115Z,11.52
2022-10-09T07:33:30.619Z,12.32
2022-10-09T07:35:59.397Z,12.48
2022-10-09T07:38:26.213Z,13.85
2022-10-09T07:40:53.545Z,13.07
2022-10-09T07:43:20.878Z,14.20
2022-10-09T07:45:47.417Z,12.45
2022-10-09T07:48:13.993Z,12.07
2022-10-09T07:50:40.542Z,11.63
2022-10-09T07:53:08.614Z,11.07
2022-10-09T07:55:35.450Z,12.32
2022-10-09T07:58:02.039Z,11.20
2022-10-09T08:00:28.506Z,11.48
2022-10-09T08:02:55.403Z,14.45
2022-10-09T08:05:21.837Z,14.10
2022-10-09T08:07:48.283Z,13.52
2022-10-09T08:10:14.769Z,13.75
2022-10-09T08:12:41.258Z,13.77
2022-10-09T08:15:08.204Z,13.95
2022-10-09T08:17:34.690Z,13.35
2022-10-09T08:20:01.133Z,12.88
2022-10-09T08:22:27.606Z,12.07
2022-10-09T08:24:54.134Z,15.35
2022-10-09T08:27:20.684Z,12.80
2022-10-09T08:29:47.185Z,14.38
2022-10-09T08:32:13.634Z,13.27
2022-10-09T08:34:40.121Z,15.10
2022-10-09T08:37:06.602Z,14.35
2022-10-09T08:39:33.047Z,15.75
2022-10-09T08:42:03.441Z,15.65
2022-10-09T08:44:48.885Z,14.95
2022-10-09T08:47:44.165Z,13.32
2022-10-09T08:50:15.544Z,14.75
2022-10-09T08:53:03.793Z,14.25
2022-10-09T08:55:40.214Z,12.88
2022-10-09T08:58:06.826Z,13.23
2022-10-09T09:00:40.569Z,12.23
2022-10-09T09:06:01.635Z,11.13
2022-10-09T09:08:44.161Z,13.25
2022-10-09T09:11:34.597Z,11.52
2022-10-09T09:14:25.897Z,10.13
2022-10-09T09:17:29.789Z,10.80
2022-10-09T09:20:03.183Z,10.48
2022-10-09T09:22:30.907Z,9.38
2022-10-09T09:25:00.690Z,8.98
2022-10-09T09:27:36.003Z,8.70
2022-10-09T09:30:13.922Z,8.52
2022-10-09T09:32:44.290Z,8.13
2022-10-09T09:35:48.462Z,7.43
2022-10-09T09:38:15.234Z,6.55
2022-10-09T09:40:46.989Z,8.35
2022-10-09T09:43:19.797Z,7.50
2022-10-09T09:45:46.839Z,6.72
2022-10-09T09:48:17.455Z,6.00
2022-10-09T09:50:56.392Z,6.53
2022-10-09T09:53:36.199Z,6.38
2022-10-09T09:56:03.051Z,6.43
2022-10-09T09:58:34.655Z,6.45
2022-10-09T10:01:03.168Z,5.50
2022-10-09T10:03:30.913Z,5.97
2022-10-09T10:05:57.459Z,7.43
2022-10-09T10:08:31.535Z,5.90
2022-10-09T10:11:03.219Z,5.82
2022-10-09T10:13:38.169Z,4.38
2022-10-09T10:16:07.265Z,5.00
2022-10-09T10:18:42.019Z,3.97
2022-10-09T10:21:15.116Z,4.25
2022-10-09T10:23:44.517Z,4.13
2022-10-09T10:26:31.898Z,4.18
2022-10-09T10:29:06.159Z,3.58
2022-10-09T10:31:40.304Z,5.35
2022-10-09T10:34:15.380Z,5.35
2022-10-09T10:36:41.883Z,4.85
2022-10-09T10:39:14.729Z,5.05
2022-10-09T10:41:45.427Z,5.35
2022-10-09T10:44:22.660Z,5.20
2022-10-09T10:46:53.973Z,5.05
2022-10-09T10:49:22.010Z,4.55
2022-10-09T10:52:22.067Z,4.63
2022-10-09T10:54:55.297Z,5.40
2022-10-09T10:57:43.683Z,5.07
2022-10-09T11:00:11.670Z,4.95
2022-10-09T11:03:15.684Z,6.03
2022-10-09T11:06:05.450Z,4.57
2022-10-09T11:08:44.862Z,4.00
2022-10-09T11:11:21.725Z,4.28
2022-10-09T11:13:51.084Z,4.30
2022-10-09T11:17:00.055Z,3.58
2022-10-09T11:20:03.503Z,3.28
2022-10-09T11:22:36.051Z,4.47
2022-10-09T11:25:29.997Z,3.53
2022-10-09T11:28:15.981Z,4.38
2022-10-09T11:30:53.186Z,4.05
2022-10-09T11:33:47.948Z,3.97
2022-10-09T11:36:18.712Z,3.50
2022-10-09T11:39:22.313Z,3.97
2022-10-09T11:41:50.637Z,3.40
2022-10-09T11:44:37.358Z,3.92
2022-10-09T11:47:12.403Z,3.72
2022-10-09T11:49:46.438Z,3.42
2022-10-09T11:52:21.270Z,3.60
2022-10-09T11:54:47.828Z,3.55
2022-10-09T11:57:15.452Z,3.85
2022-10-09T11:59:42.569Z,3.78
2022-10-09T12:02:21.135Z,3.80
2022-10-09T12:04:54.948Z,3.60
2022-10-09T12:07:36.365Z,3.30
2022-10-09T12:10:06.474Z,3.13
2022-10-09T12:12:33.405Z,3.05
2022-10-09T12:15:11.519Z,3.80
2022-10-09T12:17:48.208Z,4.38
2022-10-09T12:20:21.274Z,3.95
2022-10-09T12:23:13.958Z,3.08
2022-10-09T12:25:42.244Z,3.35
2022-10-09T12:28:18.463Z,3.22
2022-10-09T12:30:47.927Z,3.35
2022-10-09T12:33:14.394Z,3.25
2022-10-09T12:35:43.412Z,3.83
2022-10-09T12:38:27.668Z,4.22
2022-10-09T13:04:58.258Z,3.28
2022-10-09T13:07:27.543Z,3.42
2022-10-09T13:10:06.284Z,2.60
2022-10-09T13:12:33.650Z,2.75
2022-10-09T13:15:23.023Z,4.15
2022-10-09T13:17:49.750Z,2.88
2022-10-09T13:20:16.313Z,2.50
2022-10-09T13:23:03.551Z,2.58
2022-10-09T13:25:39.166Z,2.17
2022-10-09T13:28:05.823Z,2.33
2022-10-09T13:30:32.459Z,2.38
2022-10-09T13:32:59.008Z,2.47
2022-10-09T13:35:25.445Z,2.55
2022-10-09T13:37:52.513Z,2.17
2022-10-09T13:40:21.666Z,2.00
2022-10-09T13:42:56.089Z,2.45
2022-10-09T13:45:22.881Z,1.92
2022-10-09T13:47:49.604Z,2.97
2022-10-09T13:50:17.752Z,2.05
2022-10-09T13:52:44.241Z,2.13
2022-10-09T13:55:10.837Z,1.98
2022-10-09T13:57:37.386Z,1.90
2022-10-09T14:00:07.229Z,2.10
2022-10-09T14:02:38.707Z,2.13
2022-10-09T14:05:05.559Z,2.17
2022-10-09T14:07:32.085Z,2.33
2022-10-09T14:09:58.562Z,2.30
2022-10-09T14:12:25.050Z,2.58
2022-10-09T14:14:53.095Z,1.77
2022-10-09T14:17:19.541Z,2.33
2022-10-09T14:19:45.986Z,1.73
2022-10-09T14:22:13.402Z,2.10
2022-10-09T14:24:39.855Z,2.28
2022-10-09T14:27:06.517Z,1.98
2022-10-09T14:29:33.146Z,1.85
2022-10-09T14:31:59.587Z,1.73
2022-10-09T14:34:26.095Z,1.90
2022-10-09T14:36:52.633Z,1.80
2022-10-09T14:39:19.136Z,1.70
2022-10-09T14:41:45.842Z,1.67
2022-10-09T14:44:12.822Z,2.15
2022-10-09T14:46:39.498Z,1.98
2022-10-09T14:49:07.851Z,1.50
2022-10-09T14:51:37.085Z,1.40
2022-10-09T14:54:04.663Z,1.45
2022-10-09T14:56:31.230Z,2.22
2022-10-09T14:58:58.488Z,2.08
2022-10-09T15:01:24.993Z,1.83
2022-10-09T15:03:51.789Z,1.95
2022-10-09T15:06:20.066Z,2.08
2022-10-09T15:08:46.536Z,1.80
2022-10-09T15:11:13.170Z,1.75
2022-10-09T15:13:40.190Z,1.70
2022-10-09T15:16:13.046Z,1.27
2022-10-09T15:18:39.989Z,1.67
2022-10-09T15:21:11.925Z,1.90
2022-10-09T15:23:38.402Z,1.60
2022-10-09T15:26:05.212Z,1.83
2022-10-09T15:28:31.768Z,1.60
2022-10-09T15:31:00.321Z,1.50
2022-10-09T15:33:26.970Z,1.90
2022-10-09T15:35:53.998Z,1.40
2022-10-09T15:38:22.524Z,1.60
2022-10-09T15:40:50.919Z,1.52
2022-10-09T15:43:19.130Z,1.58
2022-10-09T15:45:45.893Z,1.50
2022-10-09T15:48:20.387Z,1.95
2022-10-09T15:50:50.479Z,1.73
2022-10-09T15:53:18.443Z,1.65
2022-10-09T15:55:46.679Z,1.60
2022-10-09T15:58:15.045Z,1.35
2022-10-09T16:00:43.517Z,1.80
2022-10-09T16:03:10.951Z,1.98
2022-10-09T16:05:43.247Z,1.60
2022-10-09T16:08:11.178Z,1.60
2022-10-09T16:10:48.800Z,1.80
2022-10-09T16:13:15.813Z,1.70
2022-10-09T16:15:42.816Z,2.35
2022-10-09T16:18:09.906Z,1.63
2022-10-09T16:20:37.824Z,1.88
2022-10-09T16:23:04.910Z,1.60
2022-10-09T16:25:31.391Z,1.20
2022-10-09T16:27:57.859Z,1.80
2022-10-09T16:30:24.728Z,2.22
2022-10-09T16:32:51.704Z,1.58
2022-10-09T16:35:18.721Z,2.58
2022-10-09T16:37:45.183Z,1.95
2022-10-09T16:40:11.650Z,1.75
2022-10-09T16:42:38.259Z,1.40
2022-10-09T16:45:05.213Z,1.98
2022-10-09T16:47:31.925Z,2.10
2022-10-09T16:49:58.418Z,2.20
2022-10-09T16:52:24.859Z,1.90
2022-10-09T16:54:51.325Z,2.42
2022-10-09T16:57:18.238Z,1.98
2022-10-09T16:59:45.196Z,1.83
2022-10-09T17:02:13.090Z,2.10
2022-10-09T17:04:40.659Z,3.25
2022-10-09T17:07:11.360Z,2.45
2022-10-09T17:09:40.233Z,2.88
2022-10-09T17:12:09.598Z,2.67
2022-10-09T17:14:37.197Z,1.95
2022-10-09T17:17:04.869Z,2.50
2022-10-09T17:19:32.386Z,3.20
2022-10-09T17:22:02.243Z,2.88
2022-10-09T17:24:29.098Z,2.53
2022-10-09T17:26:55.653Z,2.80
2022-10-09T17:29:22.956Z,2.53
2022-10-09T17:31:49.839Z,2.17
2022-10-09T17:34:16.707Z,2.35
2022-10-09T17:36:44.165Z,2.78
2022-10-09T17:39:13.336Z,2.85
2022-10-09T17:41:39.969Z,2.58
2022-10-09T17:44:06.589Z,2.38
2022-10-09T17:46:33.247Z,2.63
2022-10-09T17:48:59.974Z,2.97
2022-10-09T17:51:32.294Z,3.05
2022-10-09T17:54:01.387Z,3.70
2022-10-09T17:56:29.405Z,4.22
2022-10-09T17:58:55.949Z,4.78
2022-10-09T18:01:23.248Z,4.55
2022-10-09T18:03:49.753Z,4.82
2022-10-09T18:06:18.727Z,5.50
2022-10-09T18:08:45.732Z,5.93
2022-10-09T18:11:14.789Z,5.20
2022-10-09T18:13:42.385Z,5.80
2022-10-09T18:16:11.454Z,6.53
2022-10-09T18:18:38.439Z,6.57
2022-10-09T18:21:11.201Z,5.63
2022-10-09T18:23:38.055Z,5.43
2022-10-09T18:26:09.433Z,4.55
2022-10-09T18:28:36.086Z,4.35
2022-10-09T18:31:05.450Z,4.25
2022-10-09T18:33:32.269Z,4.72
2022-10-09T18:36:07.025Z,4.97
2022-10-09T18:38:34.667Z,5.55
2022-10-09T18:41:01.940Z,5.13
2022-10-09T18:43:28.748Z,4.65
2022-10-09T18:45:55.866Z,5.63
2022-10-09T18:48:22.789Z,5.50
2022-10-09T18:50:49.245Z,4.80
2022-10-09T18:53:15.758Z,4.85
2022-10-09T18:55:42.790Z,4.80
2022-10-09T18:58:09.373Z,4.40
2022-10-09T19:00:37.089Z,3.60
2022-10-09T19:03:03.835Z,4.15
2022-10-09T19:05:30.390Z,4.28
2022-10-09T19:07:56.837Z,3.80
2022-10-09T19:10:23.306Z,4.15
2022-10-09T19:12:52.298Z,3.63
2022-10-09T19:15:19.318Z,4.10
2022-10-09T19:17:45.774Z,3.75
2022-10-09T19:20:12.292Z,4.50
2022-10-09T19:22:38.738Z,3.65
2022-10-09T19:25:06.303Z,3.50
2022-10-09T19:27:32.852Z,4.55
2022-10-09T19:29:59.619Z,4.05
2022-10-09T19:32:26.210Z,5.68
2022-10-09T19:34:52.821Z,4.57
2022-10-09T19:37:19.357Z,3.72
2022-10-09T19:39:48.470Z,4.18
2022-10-09T19:42:18.640Z,3.60
2022-10-09T19:44:45.565Z,3.85
2022-10-09T19:47:13.270Z,3.80
2022-10-09T19:49:40.127Z,3.72
2022-10-09T19:52:06.609Z,3.60
2022-10-09T19:54:34.915Z,5.38
2022-10-09T19:57:01.816Z,4.00
2022-10-09T19:59:28.441Z,3.60
2022-10-09T20:01:57.499Z,3.72
2022-10-09T20:04:24.249Z,3.72
2022-10-09T20:06:51.421Z,3.60
2022-10-09T20:09:17.908Z,3.40
2022-10-09T20:11:44.418Z,4.00
2022-10-09T20:14:10.982Z,3.63
2022-10-09T20:16:37.759Z,3.78
2022-10-09T20:19:04.478Z,3.80
2022-10-09T20:21:32.408Z,3.75
2022-10-09T20:23:59.115Z,3.40
2022-10-09T20:26:25.749Z,3.70
2022-10-09T20:28:55.494Z,3.65
2022-10-09T20:31:25.358Z,3.85
2022-10-09T20:33:52.630Z,3.42
2022-10-09T20:36:31.257Z,3.60
2022-10-09T20:38:59.625Z,3.75
2022-10-09T20:41:28.430Z,3.45
2022-10-09T20:43:56.561Z,3.40
2022-10-09T20:46:24.093Z,3.45
2022-10-09T20:48:51.822Z,3.60
2022-10-09T20:51:19.033Z,3.45
2022-10-09T20:53:45.665Z,3.47
2022-10-09T20:56:14.083Z,3.72
2022-10-09T20:58:40.666Z,3.15
2022-10-09T21:01:09.108Z,4.20
2022-10-09T21:03:36.377Z,3.38
2022-10-09T21:06:04.366Z,3.72
2022-10-09T21:08:31.611Z,3.70
2022-10-09T21:10:58.157Z,3.58
2022-10-09T21:13:24.606Z,3.65
2022-10-09T21:15:51.201Z,3.42
2022-10-09T21:18:18.992Z,3.95
2022-10-09T21:20:46.750Z,3.70
2022-10-09T21:23:14.838Z,3.60
2022-10-09T21:25:52.093Z,3.70
2022-10-09T21:28:19.816Z,3.78
2022-10-09T21:30:46.442Z,3.53
2022-10-09T21:33:13.219Z,3.70
2022-10-09T21:35:45.736Z,3.72
2022-10-09T21:38:16.690Z,3.70
2022-10-09T21:40:43.508Z,3.17
2022-10-09T21:43:10.566Z,3.30
2022-10-09T21:45:38.001Z,3.70
2022-10-09T21:48:04.885Z,3.80
2022-10-09T21:50:32.988Z,3.55
2022-10-09T21:53:00.088Z,3.90
2022-10-09T21:55:26.642Z,3.25
2022-10-09T21:57:53.301Z,4.60
2022-10-09T22:00:19.857Z,3.22
2022-10-09T22:02:46.322Z,3.55
2022-10-09T22:05:12.910Z,3.47
2022-10-09T22:07:39.365Z,3.65
2022-10-09T22:10:07.118Z,3.40
2022-10-09T22:12:34.011Z,3.30
2022-10-09T22:15:00.482Z,3.72
2022-10-09T22:17:27.066Z,3.53
2022-10-09T22:19:53.489Z,3.75
2022-10-09T22:22:20.038Z,3.42
2022-10-09T22:24:46.549Z,3.95
2022-10-09T22:27:13.005Z,3.85
2022-10-09T22:29:39.493Z,3.50
2022-10-09T22:32:05.967Z,2.92
2022-10-09T22:34:32.411Z,4.55
2022-10-09T22:36:58.858Z,3.85
2022-10-09T22:39:25.367Z,3.75
2022-10-09T22:41:51.792Z,3.70
2022-10-09T22:44:18.290Z,3.60
2022-10-09T22:46:44.838Z,3.72
2022-10-09T22:49:13.984Z,3.33
2022-10-09T22:51:40.801Z,4.07
2022-10-09T22:54:07.419Z,3.92
2022-10-09T22:56:36.666Z,3.80
2022-10-09T22:59:03.833Z,4.10
2022-10-09T23:01:48.131Z,3.78
2022-10-09T23:04:17.043Z,4.07
2022-10-09T23:06:44.538Z,3.80
2022-10-09T23:09:13.389Z,3.78
2022-10-09T23:11:39.869Z,4.70
2022-10-09T23:14:06.662Z,3.65
2022-10-09T23:16:33.229Z,4.57
2022-10-09T23:19:06.119Z,3.90
2022-10-09T23:21:34.306Z,3.53
2022-10-09T23:24:00.769Z,4.20
2022-10-09T23:26:30.482Z,3.85
2022-10-09T23:28:59.138Z,3.80
2022-10-09T23:31:25.876Z,4.15
2022-10-09T23:33:52.463Z,3.85
2022-10-09T23:36:21.117Z,4.13
2022-10-09T23:38:47.762Z,4.13
2022-10-09T23:41:16.951Z,4.10
2022-10-09T23:43:44.104Z,3.83
2022-10-09T23:46:12.929Z,4.35
2022-10-09T23:48:39.385Z,4.50
2022-10-09T23:51:06.511Z,4.20
2022-10-09T23:53:33.832Z,4.30
2022-10-09T23:56:00.415Z,4.03
2022-10-09T23:58:27.035Z,4.28
